Time;durP1;ratioP1;P1;durP2;ratioP2;P2;SDS_P1;SDS_P2;PMS_P1;PMS_P2;Temp;Humidity;BMP_temperature;BMP_pressure;BME280_temperature;BME280_humidity;BME280_pressure;Samples;Min_cycle;Max_cycle;Signal;HPM_P1;HPM_P2
2022/03/09 00:01:50;;;;;;;23.33;11.40;;;-4.00;99.90;;;;;;5036121;28;20143;-93
2022/03/09 00:04:17;;;;;;;24.63;11.50;;;-4.00;99.90;;;;;;5036128;28;20057;-92
2022/03/09 00:06:44;;;;;;;20.05;10.35;;;-4.00;99.90;;;;;;5036065;28;20056;-92
2022/03/09 00:09:13;;;;;;;18.33;10.73;;;-4.10;99.90;;;;;;5036108;28;20509;-92
2022/03/09 00:11:40;;;;;;;20.65;10.90;;;-4.10;99.90;;;;;;5035985;28;20548;-92
2022/03/09 00:14:06;;;;;;;16.63;10.73;;;-4.20;99.90;;;;;;5035380;28;20059;-92
2022/03/09 00:16:33;;;;;;;21.33;11.32;;;-4.10;99.90;;;;;;5036084;28;20045;-92
2022/03/09 00:19:00;;;;;;;21.05;11.07;;;-4.20;99.90;;;;;;5035794;28;20095;-91
2022/03/09 00:21:27;;;;;;;18.50;10.15;;;-4.20;99.90;;;;;;5035846;28;20057;-91
2022/03/09 00:23:54;;;;;;;20.58;10.32;;;-4.30;99.90;;;;;;5035993;28;20140;-91
2022/03/09 00:26:21;;;;;;;20.50;11.18;;;-4.40;99.90;;;;;;5036123;28;20067;-91
2022/03/09 00:28:47;;;;;;;20.60;10.77;;;-4.30;99.90;;;;;;5036350;28;20049;-91
2022/03/09 00:31:14;;;;;;;18.95;10.40;;;-4.40;99.90;;;;;;5042455;28;20053;-91
2022/03/09 00:33:41;;;;;;;19.25;10.63;;;-4.50;99.90;;;;;;5041396;28;20445;-91
2022/03/09 00:36:08;;;;;;;21.48;11.60;;;-4.50;99.90;;;;;;5037762;28;20057;-91
2022/03/09 00:38:35;;;;;;;17.65;10.93;;;-4.50;99.90;;;;;;5036600;28;20053;-92
2022/03/09 00:41:02;;;;;;;20.25;11.07;;;-4.50;99.90;;;;;;5036147;28;20139;-91
2022/03/09 00:43:29;;;;;;;21.90;10.73;;;-4.50;99.90;;;;;;5036035;28;20057;-91
2022/03/09 00:45:56;;;;;;;21.48;10.55;;;-4.60;99.90;;;;;;5036923;28;20052;-91
2022/03/09 00:48:23;;;;;;;18.10;11.00;;;-4.60;99.90;;;;;;5036650;28;20041;-91
2022/03/09 00:50:49;;;;;;;19.00;10.40;;;-4.70;99.90;;;;;;5035907;28;20416;-90
2022/03/09 00:53:16;;;;;;;17.48;9.85;;;-4.60;99.90;;;;;;5035938;28;20112;-90
2022/03/09 00:55:43;;;;;;;21.33;10.88;;;-4.70;99.90;;;;;;5035979;28;20145;-90
2022/03/09 00:58:09;;;;;;;20.42;10.75;;;-4.70;99.90;;;;;;5036180;28;20129;-90
2022/03/09 01:00:38;;;;;;;17.42;10.15;;;-4.70;99.90;;;;;;5035591;28;20107;-90
2022/03/09 01:03:05;;;;;;;19.75;11.02;;;-4.70;99.90;;;;;;5035891;28;20557;-90
2022/03/09 01:05:32;;;;;;;21.60;11.18;;;-4.70;99.90;;;;;;5036835;28;20060;-90
2022/03/09 01:07:58;;;;;;;29.48;12.30;;;-4.80;99.90;;;;;;5039297;28;20133;-90
2022/03/09 01:10:25;;;;;;;19.27;10.68;;;-4.80;99.90;;;;;;5039021;28;20501;-90
2022/03/09 01:12:52;;;;;;;21.92;11.68;;;-4.80;99.90;;;;;;5038933;28;20139;-90
2022/03/09 01:15:19;;;;;;;19.88;10.90;;;-4.90;99.90;;;;;;5039331;28;20060;-89
2022/03/09 01:17:46;;;;;;;20.70;11.40;;;-4.90;99.90;;;;;;5039350;28;20053;-90
2022/03/09 01:20:13;;;;;;;16.98;10.82;;;-4.80;99.90;;;;;;5038815;28;20460;-90
2022/03/09 01:22:40;;;;;;;19.75;10.55;;;-4.80;99.90;;;;;;5038893;28;20051;-89
2022/03/09 01:25:08;;;;;;;20.77;11.05;;;-4.90;99.90;;;;;;5038797;28;20088;-89
2022/03/09 01:27:35;;;;;;;16.75;10.10;;;-4.80;99.90;;;;;;5038794;28;20041;-88
2022/03/09 01:30:03;;;;;;;23.83;11.88;;;-4.80;99.90;;;;;;5038886;28;20496;-89
2022/03/09 01:32:29;;;;;;;20.40;11.15;;;-4.80;99.90;;;;;;5038559;28;20045;-89
2022/03/09 01:34:56;;;;;;;18.85;10.57;;;-4.70;99.90;;;;;;5038598;28;20135;-89
2022/03/09 01:37:23;;;;;;;20.80;10.93;;;-4.70;99.90;;;;;;5038550;28;20049;-89
2022/03/09 01:39:50;;;;;;;18.33;10.60;;;-4.70;99.90;;;;;;5038501;28;20409;-89
2022/03/09 01:42:17;;;;;;;17.60;11.18;;;-4.70;99.90;;;;;;5038256;28;20136;-89
2022/03/09 01:44:44;;;;;;;19.50;10.63;;;-4.60;99.90;;;;;;5038605;28;20056;-89
2022/03/09 01:47:11;;;;;;;18.70;10.93;;;-4.70;99.90;;;;;;5038343;28;20067;-89
2022/03/09 01:49:39;;;;;;;19.65;10.10;;;-4.70;99.90;;;;;;5038688;28;20063;-89
2022/03/09 01:52:07;;;;;;;19.90;10.18;;;-4.70;99.90;;;;;;5041801;28;20051;-88
2022/03/09 01:54:34;;;;;;;21.90;10.40;;;-4.70;99.90;;;;;;5039362;28;20489;-89
2022/03/09 01:57:02;;;;;;;19.92;10.18;;;-4.70;99.90;;;;;;5038310;28;20132;-89
2022/03/09 01:59:29;;;;;;;19.77;10.02;;;-4.70;99.90;;;;;;5037927;28;20053;-89
2022/03/09 02:01:56;;;;;;;16.38;10.48;;;-4.70;99.90;;;;;;5038043;28;20115;-89
2022/03/09 02:04:23;;;;;;;18.65;10.95;;;-4.70;99.90;;;;;;5038153;28;20059;-89
2022/03/09 02:06:50;;;;;;;15.85;9.10;;;-4.70;99.90;;;;;;5037987;28;20053;-89
2022/03/09 02:12:02;;;;;;;18.20;10.38;;;-4.60;99.90;;;;;;5055538;28;20075;-90
2022/03/09 02:14:31;;;;;;;21.23;10.32;;;-4.80;99.90;;;;;;5037680;28;20083;-89
2022/03/09 02:17:04;;;;;;;20.60;10.75;;;-4.80;99.90;;;;;;5037261;28;20045;-89
2022/03/09 02:19:31;;;;;;;19.98;10.65;;;-4.90;99.90;;;;;;5038084;28;20079;-89
2022/03/09 02:22:21;;;;;;;20.60;11.40;;;-4.80;99.90;;;;;;5037959;28;20561;-89
2022/03/09 02:24:50;;;;;;;21.38;11.27;;;-4.80;99.90;;;;;;5037922;28;20051;-89
2022/03/09 02:27:20;;;;;;;18.38;10.93;;;-4.90;99.90;;;;;;5038010;28;20053;-88
2022/03/09 02:29:48;;;;;;;24.13;12.70;;;-5.00;99.90;;;;;;5037717;28;20585;-89
2022/03/09 02:32:15;;;;;;;21.42;11.18;;;-5.00;99.90;;;;;;5037434;28;20416;-89
2022/03/09 02:34:42;;;;;;;16.88;10.45;;;-5.00;99.90;;;;;;5037961;28;20049;-89
2022/03/09 02:37:09;;;;;;;17.25;10.35;;;-5.10;99.90;;;;;;5037494;28;20417;-88
2022/03/09 02:39:36;;;;;;;21.92;11.90;;;-5.10;99.90;;;;;;5037484;28;20155;-89
2022/03/09 02:42:04;;;;;;;18.45;10.80;;;-5.20;99.90;;;;;;5037127;28;20045;-88
2022/03/09 02:44:31;;;;;;;21.85;10.77;;;-5.30;99.90;;;;;;5037419;28;20144;-89
2022/03/09 02:46:58;;;;;;;22.52;10.45;;;-5.30;99.90;;;;;;5037332;28;20144;-88
2022/03/09 02:49:26;;;;;;;20.85;10.82;;;-5.40;99.90;;;;;;5037382;28;20059;-89
2022/03/09 02:51:52;;;;;;;19.10;10.30;;;-5.40;99.90;;;;;;5036958;28;20049;-88
2022/03/09 02:54:19;;;;;;;22.00;10.70;;;-5.40;99.90;;;;;;5037431;28;20044;-88
2022/03/09 02:56:46;;;;;;;20.83;10.30;;;-5.50;99.90;;;;;;5037324;28;20136;-88
2022/03/09 02:59:13;;;;;;;25.38;11.30;;;-5.40;99.90;;;;;;5037073;28;20041;-89
2022/03/09 03:01:41;;;;;;;23.45;12.05;;;-5.50;99.90;;;;;;5037000;28;20069;-89
2022/03/09 03:04:07;;;;;;;20.88;10.43;;;-5.50;99.90;;;;;;5036790;28;20132;-89
2022/03/09 03:06:34;;;;;;;21.60;10.73;;;-5.50;99.90;;;;;;5037332;28;20136;-89
2022/03/09 03:09:01;;;;;;;23.25;11.32;;;-5.50;99.90;;;;;;5036690;28;20140;-89
2022/03/09 03:11:28;;;;;;;25.55;10.32;;;-5.40;99.90;;;;;;5036445;28;20127;-89
2022/03/09 03:13:55;;;;;;;21.15;11.02;;;-5.40;99.90;;;;;;5036340;28;20048;-89
2022/03/09 03:16:21;;;;;;;23.98;10.60;;;-5.40;99.90;;;;;;5036505;28;20149;-88
2022/03/09 03:18:48;;;;;;;18.65;10.70;;;-5.40;99.90;;;;;;5036411;28;20064;-88
2022/03/09 03:21:15;;;;;;;15.88;9.43;;;-5.40;99.90;;;;;;5035971;28;20063;-89
2022/03/09 03:23:42;;;;;;;19.52;10.77;;;-5.40;99.90;;;;;;5036280;28;20182;-89
2022/03/09 03:26:08;;;;;;;14.68;10.20;;;-5.50;99.90;;;;;;5053730;28;20052;-88
2022/03/09 03:28:35;;;;;;;20.23;10.68;;;-5.50;99.90;;;;;;5053424;28;20106;-89
2022/03/09 03:31:04;;;;;;;19.85;10.63;;;-5.60;99.90;;;;;;5053912;28;20091;-89
2022/03/09 03:33:31;;;;;;;18.75;10.00;;;-5.60;99.90;;;;;;5036373;28;20091;-88
2022/03/09 03:35:58;;;;;;;20.45;9.52;;;-5.80;99.90;;;;;;5036216;28;20124;-89
2022/03/09 03:38:26;;;;;;;19.77;10.65;;;-5.80;99.90;;;;;;5035993;28;20061;-89
2022/03/09 03:40:53;;;;;;;16.85;10.30;;;-5.80;99.90;;;;;;5053313;28;20136;-89
2022/03/09 03:43:19;;;;;;;21.60;11.02;;;-5.80;99.90;;;;;;5053418;28;20103;-89
2022/03/09 03:45:46;;;;;;;23.92;11.60;;;-5.80;99.90;;;;;;5053484;28;20386;-89
2022/03/09 03:48:13;;;;;;;20.73;10.60;;;-5.80;99.90;;;;;;5053542;28;20489;-89
2022/03/09 03:50:40;;;;;;;22.80;10.73;;;-5.80;99.90;;;;;;5053541;28;20100;-89
2022/03/09 03:53:07;;;;;;;22.75;10.27;;;-5.80;99.90;;;;;;5036277;28;20080;-88
2022/03/09 03:55:34;;;;;;;16.77;10.32;;;-5.80;99.90;;;;;;5036030;28;20420;-89
2022/03/09 03:58:00;;;;;;;15.73;10.30;;;-5.90;99.90;;;;;;5053513;28;20139;-89
2022/03/09 04:00:27;;;;;;;22.35;12.55;;;-5.80;99.90;;;;;;5053417;28;20084;-89
2022/03/09 04:02:54;;;;;;;20.65;11.60;;;-5.80;99.90;;;;;;5036451;28;20076;-88
2022/03/09 04:05:21;;;;;;;25.08;11.38;;;-5.80;99.90;;;;;;5035628;28;20056;-88
2022/03/09 04:07:48;;;;;;;18.77;10.82;;;-5.80;99.90;;;;;;5035771;28;20045;-89
2022/03/09 04:10:15;;;;;;;24.73;11.18;;;-5.70;99.90;;;;;;5035589;28;20167;-89
2022/03/09 04:12:42;;;;;;;19.67;10.80;;;-5.70;99.90;;;;;;5035470;28;20416;-88
2022/03/09 04:15:09;;;;;;;17.95;10.50;;;-5.80;99.90;;;;;;5052964;28;20059;-89
2022/03/09 04:17:44;;;;;;;23.10;11.25;;;-6.00;99.90;;;;;;5037171;28;20044;-89
2022/03/09 04:20:13;;;;;;;19.25;10.73;;;-6.00;99.90;;;;;;5053738;28;20049;-88
2022/03/09 04:22:40;;;;;;;17.35;11.10;;;-6.00;99.90;;;;;;5052970;28;20127;-88
2022/03/09 04:25:08;;;;;;;18.77;11.10;;;-6.00;99.90;;;;;;5035665;28;20072;-88
2022/03/09 04:27:35;;;;;;;21.42;11.70;;;-6.00;99.90;;;;;;5035627;28;20051;-89
2022/03/09 04:30:03;;;;;;;18.45;10.70;;;-6.00;99.90;;;;;;5035676;28;20080;-89
2022/03/09 04:32:31;;;;;;;18.02;10.32;;;-5.90;99.90;;;;;;5035523;28;20049;-89
2022/03/09 04:34:58;;;;;;;17.25;9.73;;;-6.00;99.90;;;;;;5035714;28;20049;-88
2022/03/09 04:37:24;;;;;;;22.98;12.27;;;-6.00;99.90;;;;;;5035691;28;20072;-89
2022/03/09 04:39:51;;;;;;;19.80;10.32;;;-6.00;99.90;;;;;;5035856;28;20045;-88
2022/03/09 04:42:18;;;;;;;19.38;9.85;;;-5.90;99.90;;;;;;5039360;28;20071;-89
2022/03/09 04:44:44;;;;;;;24.33;10.85;;;-5.90;99.90;;;;;;5039753;28;20045;-88
2022/03/09 04:47:11;;;;;;;19.38;10.02;;;-5.90;99.90;;;;;;5039379;28;20057;-88
2022/03/09 04:49:38;;;;;;;17.70;9.85;;;-5.80;99.90;;;;;;5056655;28;20045;-88
2022/03/09 04:52:05;;;;;;;14.90;8.75;;;-5.70;99.90;;;;;;5039162;28;20553;-89
2022/03/09 04:54:32;;;;;;;13.63;8.80;;;-5.80;99.90;;;;;;5057158;28;20049;-88
2022/03/09 04:56:59;;;;;;;16.30;9.23;;;-5.90;99.90;;;;;;5039373;28;20053;-89
2022/03/09 04:59:26;;;;;;;14.02;8.45;;;-5.90;99.90;;;;;;5039252;28;20051;-89
2022/03/09 05:01:53;;;;;;;14.95;8.32;;;-6.00;99.90;;;;;;5038990;28;20077;-88
2022/03/09 05:04:20;;;;;;;18.25;8.75;;;-6.10;99.90;;;;;;5039040;28;20489;-88
2022/03/09 05:06:47;;;;;;;15.52;8.90;;;-6.20;99.90;;;;;;5039376;28;20136;-89
2022/03/09 05:09:13;;;;;;;18.10;9.02;;;-6.20;99.90;;;;;;5039006;28;20057;-89
2022/03/09 05:11:41;;;;;;;21.27;9.05;;;-6.30;99.90;;;;;;5039119;28;20059;-89
2022/03/09 05:14:07;;;;;;;15.75;8.45;;;-6.30;99.90;;;;;;5038843;28;20136;-89
2022/03/09 05:16:34;;;;;;;21.98;8.95;;;-6.30;99.90;;;;;;5039118;28;20519;-89
2022/03/09 05:19:02;;;;;;;14.57;8.23;;;-6.30;99.90;;;;;;5037831;28;20049;-88
2022/03/09 05:21:29;;;;;;;15.43;8.13;;;-6.30;99.90;;;;;;5038977;28;20049;-89
2022/03/09 05:23:56;;;;;;;26.15;9.57;;;-6.30;99.90;;;;;;5038899;28;20161;-89
2022/03/09 05:26:23;;;;;;;17.80;10.05;;;-6.40;99.90;;;;;;5039153;28;20045;-88
2022/03/09 05:28:50;;;;;;;18.02;9.45;;;-6.30;99.90;;;;;;5039096;28;20481;-88
2022/03/09 05:31:21;;;;;;;16.50;9.70;;;-6.30;99.90;;;;;;5039446;28;20049;-88
2022/03/09 05:33:48;;;;;;;17.80;10.13;;;-6.30;99.90;;;;;;5038603;28;20452;-88
2022/03/09 05:36:14;;;;;;;20.27;9.57;;;-6.30;99.90;;;;;;5038852;28;20493;-89
2022/03/09 05:38:41;;;;;;;15.30;8.90;;;-6.40;99.90;;;;;;5038985;28;20053;-89
2022/03/09 05:41:08;;;;;;;23.92;9.98;;;-6.40;99.90;;;;;;5038041;28;20075;-89
2022/03/09 05:43:35;;;;;;;24.00;8.75;;;-6.30;99.90;;;;;;5038369;28;20131;-89
2022/03/09 05:46:02;;;;;;;31.80;9.80;;;-6.30;99.90;;;;;;5038575;28;20055;-89
2022/03/09 05:48:29;;;;;;;24.42;9.57;;;-6.20;99.90;;;;;;5038583;28;20041;-89
2022/03/09 05:50:56;;;;;;;27.23;9.82;;;-6.10;99.90;;;;;;5037836;28;20056;-89
2022/03/09 05:53:23;;;;;;;24.40;9.60;;;-6.00;99.90;;;;;;5038292;28;20049;-88
2022/03/09 05:55:49;;;;;;;18.98;9.45;;;-5.90;99.90;;;;;;5038166;28;20545;-88
2022/03/09 05:58:16;;;;;;;19.85;9.07;;;-5.90;99.90;;;;;;5038452;28;20394;-89
2022/03/09 06:00:45;;;;;;;25.88;10.15;;;-6.00;99.90;;;;;;5038401;28;20141;-89
2022/03/09 06:03:12;;;;;;;22.75;9.80;;;-6.10;99.90;;;;;;5038586;28;20045;-89
2022/03/09 06:05:39;;;;;;;26.00;10.52;;;-6.10;99.90;;;;;;5038025;28;20064;-89
2022/03/09 06:08:05;;;;;;;18.10;10.60;;;-6.10;99.90;;;;;;5038015;28;20059;-89
2022/03/09 06:10:33;;;;;;;21.65;9.88;;;-6.20;99.90;;;;;;5038231;28;20136;-88
2022/03/09 06:12:59;;;;;;;22.15;10.75;;;-6.20;99.90;;;;;;5037934;28;20118;-89
2022/03/09 06:15:26;;;;;;;21.52;10.82;;;-6.30;99.90;;;;;;5037768;28;20059;-89
2022/03/09 06:17:53;;;;;;;21.85;10.65;;;-6.20;99.90;;;;;;5038126;28;20132;-89
2022/03/09 06:20:21;;;;;;;17.45;11.00;;;-6.10;99.90;;;;;;5037429;28;20131;-89
2022/03/09 06:22:48;;;;;;;20.15;10.68;;;-6.20;99.90;;;;;;5037608;28;20053;-89
2022/03/09 06:25:15;;;;;;;20.95;11.73;;;-6.10;99.90;;;;;;5037655;28;20485;-89
2022/03/09 06:27:44;;;;;;;17.58;10.35;;;-6.10;99.90;;;;;;5037481;28;20128;-89
2022/03/09 06:30:12;;;;;;;42.80;20.83;;;-6.00;99.90;;;;;;5037915;28;20057;-89
2022/03/09 06:32:39;;;;;;;33.00;16.23;;;-5.90;99.90;;;;;;5038407;28;20504;-89
2022/03/09 06:35:07;;;;;;;50.90;25.55;;;-6.00;99.90;;;;;;5039434;28;20048;-88
2022/03/09 06:37:34;;;;;;;37.15;17.85;;;-5.90;99.90;;;;;;5038106;28;20132;-89
2022/03/09 06:40:02;;;;;;;24.58;14.15;;;-5.80;99.90;;;;;;5037304;28;20069;-89
2022/03/09 06:42:29;;;;;;;20.88;11.68;;;-5.70;99.90;;;;;;5039945;28;20052;-89
2022/03/09 06:44:57;;;;;;;23.27;10.43;;;-5.60;99.90;;;;;;5039958;28;20056;-89
2022/03/09 06:47:25;;;;;;;16.10;9.13;;;-5.50;99.90;;;;;;5037640;28;20135;-89
2022/03/09 06:49:52;;;;;;;24.70;12.02;;;-5.50;99.90;;;;;;5037364;28;20132;-87
2022/03/09 06:52:19;;;;;;;55.65;27.05;;;-5.40;99.90;;;;;;5037586;28;20053;-89
2022/03/09 06:54:46;;;;;;;23.13;13.38;;;-5.40;99.90;;;;;;5037590;28;20056;-89
2022/03/09 06:57:15;;;;;;;21.67;11.10;;;-5.30;99.90;;;;;;5037961;28;20053;-89
2022/03/09 06:59:44;;;;;;;27.77;12.52;;;-5.20;99.90;;;;;;5037360;28;20076;-89
2022/03/09 07:02:11;;;;;;;18.27;9.25;;;-5.10;99.90;;;;;;5037511;28;20451;-90
2022/03/09 07:04:38;;;;;;;15.85;10.13;;;-5.00;99.90;;;;;;5037003;28;20077;-90
2022/03/09 07:07:05;;;;;;;24.33;15.38;;;-5.00;99.90;;;;;;5037178;28;20406;-90
2022/03/09 07:09:32;;;;;;;31.85;11.52;;;-5.00;99.90;;;;;;5037478;28;20137;-90
2022/03/09 07:11:59;;;;;;;19.40;9.70;;;-4.90;99.90;;;;;;5036946;28;20579;-90
2022/03/09 07:14:25;;;;;;;25.00;9.90;;;-4.90;99.90;;;;;;5036725;28;20140;-90
2022/03/09 07:16:52;;;;;;;32.58;10.85;;;-4.80;99.90;;;;;;5036744;28;20049;-90
2022/03/09 07:19:19;;;;;;;55.42;21.17;;;-4.80;99.90;;;;;;5036649;28;20434;-90
2022/03/09 07:21:46;;;;;;;43.85;19.20;;;-4.80;99.90;;;;;;5036807;28;20072;-90
2022/03/09 07:24:13;;;;;;;81.18;27.35;;;-4.80;99.90;;;;;;5036890;28;20051;-90
2022/03/09 07:26:41;;;;;;;35.63;16.00;;;-4.70;99.90;;;;;;5036870;28;20409;-90
2022/03/09 07:29:13;;;;;;;47.40;20.90;;;-4.50;99.90;;;;;;5036964;28;20068;-91
2022/03/09 07:31:40;;;;;;;46.40;21.25;;;-3.60;99.90;;;;;;5036779;28;20060;-92
2022/03/09 07:34:07;;;;;;;47.47;23.95;;;-2.20;99.90;;;;;;5036998;28;20136;-93
2022/03/09 07:36:34;;;;;;;41.95;19.50;;;-1.30;99.90;;;;;;5037452;28;20136;-94
2022/03/09 07:39:01;;;;;;;65.05;38.00;;;-0.30;99.90;;;;;;5037572;28;20524;-95
2022/03/09 07:41:40;;;;;;;40.20;13.60;;;0.60;99.90;;;;;;5039401;28;20075;-89
2022/03/09 07:44:07;;;;;;;47.45;10.20;;;0.30;99.90;;;;;;5036740;28;20476;-95
2022/03/09 07:46:35;;;;;;;30.52;7.75;;;0.70;99.90;;;;;;5038209;28;20067;-95
2022/03/09 07:49:02;;;;;;;21.65;7.10;;;1.10;99.90;;;;;;5041560;28;20053;-95
2022/03/09 07:51:29;;;;;;;16.67;6.55;;;2.20;99.90;;;;;;5042422;28;20053;-95
2022/03/09 07:53:56;;;;;;;18.50;5.93;;;2.90;99.90;;;;;;5040186;28;20068;-95
2022/03/09 07:56:23;;;;;;;24.42;6.60;;;4.40;99.90;;;;;;5037435;28;20139;-95
2022/03/09 07:58:50;;;;;;;19.08;6.88;;;5.50;99.90;;;;;;5036837;28;20143;-93
2022/03/09 08:01:16;;;;;;;33.17;6.65;;;6.30;99.90;;;;;;5036669;28;20132;-93
2022/03/09 08:03:44;;;;;;;16.02;4.90;;;7.30;96.10;;;;;;5037381;28;20049;-93
2022/03/09 08:06:11;;;;;;;17.88;4.97;;;8.50;91.80;;;;;;5036794;28;20063;-92
2022/03/09 08:08:38;;;;;;;10.73;4.68;;;9.40;86.30;;;;;;5036358;28;20045;-91
2022/03/09 08:11:06;;;;;;;19.52;4.63;;;10.40;80.40;;;;;;5036427;28;20497;-90
2022/03/09 08:13:34;;;;;;;11.82;4.57;;;9.90;80.20;;;;;;5035759;28;20553;-90
2022/03/09 08:16:06;;;;;;;12.80;4.18;;;10.30;77.10;;;;;;5041160;28;20485;-89
2022/03/09 08:18:34;;;;;;;15.27;3.90;;;11.60;73.10;;;;;;5040405;28;20139;-90
2022/03/09 08:21:01;;;;;;;12.57;5.28;;;11.90;69.30;;;;;;5040273;28;20048;-89
2022/03/09 08:23:28;;;;;;;9.55;4.32;;;11.80;67.90;;;;;;5040030;28;20080;-89
2022/03/09 08:25:55;;;;;;;18.00;5.22;;;11.50;68.50;;;;;;5039428;28;20045;-89
2022/03/09 08:28:22;;;;;;;7.78;3.70;;;11.50;68.20;;;;;;5039533;28;20057;-89
2022/03/09 08:30:48;;;;;;;15.55;4.78;;;12.20;65.50;;;;;;5039529;28;20576;-88
2022/03/09 08:33:15;;;;;;;14.98;4.30;;;12.10;65.60;;;;;;5039974;28;20044;-89
2022/03/09 08:35:42;;;;;;;22.05;4.40;;;12.50;63.10;;;;;;5040011;28;20055;-88
2022/03/09 08:38:09;;;;;;;16.77;4.95;;;12.10;63.30;;;;;;5039924;28;20120;-87
2022/03/09 08:40:36;;;;;;;18.77;4.45;;;11.70;65.20;;;;;;5039440;28;20075;-88
2022/03/09 08:43:03;;;;;;;14.48;4.22;;;12.20;64.10;;;;;;5056825;28;20091;-88
2022/03/09 08:45:30;;;;;;;17.10;4.60;;;13.30;63.70;;;;;;5039725;28;20143;-88
2022/03/09 08:47:57;;;;;;;14.82;4.20;;;14.50;61.00;;;;;;5057319;28;20075;-87
2022/03/09 08:50:24;;;;;;;20.20;3.85;;;14.90;57.80;;;;;;5039427;28;20186;-88
2022/03/09 08:53:00;;;;;;;24.23;5.05;;;15.40;58.40;;;;;;5040502;28;20136;-88
2022/03/09 08:55:27;;;;;;;17.77;4.05;;;15.80;56.80;;;;;;5039267;28;20057;-87
2022/03/09 08:57:54;;;;;;;24.70;4.97;;;16.10;55.40;;;;;;5056827;28;20076;-87
2022/03/09 09:00:21;;;;;;;12.63;4.57;;;14.30;56.20;;;;;;5038976;28;20052;-87
2022/03/09 09:02:49;;;;;;;16.20;4.63;;;13.70;58.10;;;;;;5039195;28;20049;-87
2022/03/09 09:05:16;;;;;;;10.68;4.43;;;14.80;57.70;;;;;;5038790;28;20045;-88
2022/03/09 09:07:43;;;;;;;13.60;4.20;;;14.60;57.30;;;;;;5038906;28;20052;-88
2022/03/09 09:10:10;;;;;;;13.43;3.85;;;15.50;56.60;;;;;;5038894;28;20041;-88
2022/03/09 09:12:37;;;;;;;11.57;5.10;;;16.20;54.40;;;;;;5038352;28;20104;-88
2022/03/09 09:15:05;;;;;;;17.95;4.70;;;15.70;54.50;;;;;;5056262;28;20053;-87
2022/03/09 09:17:32;;;;;;;7.22;3.88;;;16.50;52.50;;;;;;5038659;28;20115;-87
2022/03/09 09:20:06;;;;;;;36.45;6.72;;;16.90;51.50;;;;;;5055876;28;20128;-88
2022/03/09 09:22:33;;;;;;;6.82;4.22;;;16.60;52.10;;;;;;5021946;28;20045;-87
2022/03/09 09:25:21;;;;;;;7.22;3.70;;;17.40;51.20;;;;;;5041232;28;20251;-88
2022/03/09 09:27:48;;;;;;;15.73;4.57;;;17.20;50.40;;;;;;5038381;28;20505;-88
2022/03/09 09:30:15;;;;;;;6.60;4.40;;;17.10;51.40;;;;;;5055580;28;20132;-87
2022/03/09 09:32:45;;;;;;;10.60;4.68;;;17.20;51.30;;;;;;5038841;28;20632;-87
2022/03/09 09:35:14;;;;;;;10.60;4.80;;;16.60;51.90;;;;;;5055939;28;20128;-88
2022/03/09 09:37:43;;;;;;;10.98;4.25;;;16.40;52.70;;;;;;5038296;28;20511;-88
2022/03/09 09:40:12;;;;;;;12.07;4.03;;;16.20;54.20;;;;;;5038336;28;20405;-87
2022/03/09 09:42:40;;;;;;;8.73;4.50;;;16.00;54.00;;;;;;5038136;28;20061;-88
2022/03/09 09:45:22;;;;;;;25.58;5.32;;;16.40;54.10;;;;;;5040542;28;20048;-88
2022/03/09 09:47:51;;;;;;;17.45;5.28;;;16.70;53.70;;;;;;5038382;28;20049;-88
2022/03/09 09:50:19;;;;;;;9.73;3.92;;;16.90;52.80;;;;;;5038360;28;20068;-89
2022/03/09 09:52:46;;;;;;;15.98;4.63;;;19.50;51.00;;;;;;5038225;28;20382;-89
2022/03/09 09:55:13;;;;;;;12.10;4.38;;;20.80;48.00;;;;;;5055793;28;20049;-88
2022/03/09 09:57:40;;;;;;;6.63;4.03;;;20.00;47.20;;;;;;5055470;28;20084;-88
2022/03/09 10:00:08;;;;;;;7.07;4.35;;;19.80;48.70;;;;;;5055603;28;20049;-88
2022/03/09 10:02:41;;;;;;;13.90;6.13;;;19.90;47.50;;;;;;5038384;28;20096;-88
2022/03/09 10:05:12;;;;;;;20.75;10.32;;;20.90;46.30;;;;;;5038435;28;20087;-89
2022/03/09 10:08:04;;;;;;;312.52;180.55;;;22.40;45.00;;;;;;5037955;28;20097;-88
2022/03/09 10:10:39;;;;;;;16.40;10.50;;;22.40;42.70;;;;;;5038140;28;20052;-89
2022/03/09 10:13:16;;;;;;;18.75;7.80;;;22.10;43.60;;;;;;5037524;28;20049;-88
2022/03/09 10:15:45;;;;;;;36.40;16.35;;;22.10;43.50;;;;;;5055172;28;20140;-89
2022/03/09 10:18:13;;;;;;;18.70;8.25;;;21.30;43.60;;;;;;5037733;28;20045;-88
2022/03/09 10:20:40;;;;;;;22.10;7.72;;;20.50;44.20;;;;;;5037511;28;20509;-89
2022/03/09 10:23:08;;;;;;;18.77;6.90;;;20.90;45.10;;;;;;5037684;28;20071;-89
2022/03/09 10:25:35;;;;;;;9.32;4.82;;;20.70;44.50;;;;;;5037734;28;20080;-89
2022/03/09 10:28:10;;;;;;;9.68;4.05;;;21.00;43.90;;;;;;5038756;28;20107;-88
2022/03/09 10:30:39;;;;;;;8.38;5.72;;;21.30;42.90;;;;;;5054956;28;20131;-88
2022/03/09 10:33:12;;;;;;;8.18;4.60;;;20.70;43.50;;;;;;5054973;28;20470;-89
2022/03/09 10:35:47;;;;;;;5.35;4.45;;;19.80;44.20;;;;;;5038294;28;20555;-89
2022/03/09 10:38:17;;;;;;;7.55;4.10;;;20.10;44.20;;;;;;5055197;28;20231;-89
2022/03/09 10:40:49;;;;;;;5.03;4.07;;;20.80;43.20;;;;;;5038585;28;20126;-89
2022/03/09 10:43:30;;;;;;;12.65;4.70;;;20.00;43.10;;;;;;5037662;28;20061;-89
2022/03/09 10:46:09;;;;;;;5.68;4.38;;;19.90;44.10;;;;;;5037109;28;20084;-89
2022/03/09 10:48:52;;;;;;;8.07;4.68;;;20.90;42.30;;;;;;5054354;28;20099;-88
2022/03/09 10:51:33;;;;;;;5.90;4.60;;;21.30;41.50;;;;;;5054500;28;20128;-88
2022/03/09 10:54:08;;;;;;;14.13;5.18;;;20.50;42.10;;;;;;5036814;28;20076;-89
2022/03/09 10:56:36;;;;;;;6.38;5.28;;;20.00;43.80;;;;;;5037150;28;20048;-88
2022/03/09 10:59:15;;;;;;;7.68;5.05;;;19.30;44.30;;;;;;5037029;28;20055;-88
2022/03/09 11:01:43;;;;;;;6.38;4.82;;;20.10;44.90;;;;;;5054236;28;20159;-88
2022/03/09 11:04:16;;;;;;;6.45;4.65;;;20.80;42.80;;;;;;5054003;28;20114;-87
2022/03/09 11:06:46;;;;;;;5.70;4.25;;;21.90;42.10;;;;;;5036720;28;20049;-89
2022/03/09 11:09:15;;;;;;;7.60;5.47;;;20.70;42.60;;;;;;5036791;28;20053;-88
2022/03/09 11:11:44;;;;;;;5.93;5.10;;;20.40;43.50;;;;;;5053958;28;20478;-88
2022/03/09 11:14:14;;;;;;;5.78;4.65;;;21.10;42.40;;;;;;5036046;28;20080;-88
2022/03/09 11:16:45;;;;;;;5.38;4.03;;;20.90;42.90;;;;;;5036230;28;20434;-88
2022/03/09 11:19:13;;;;;;;5.15;4.22;;;22.40;40.90;;;;;;5036703;28;20084;-88
2022/03/09 11:21:41;;;;;;;4.80;4.30;;;25.00;38.90;;;;;;5036403;28;20049;-88
2022/03/09 11:24:14;;;;;;;5.38;4.80;;;25.20;37.00;;;;;;5036359;28;20139;-88
2022/03/09 11:26:47;;;;;;;9.13;5.03;;;22.50;39.40;;;;;;5036434;28;20047;-89
2022/03/09 11:29:14;;;;;;;9.75;4.80;;;21.10;40.50;;;;;;5036055;28;20130;-89
2022/03/09 11:31:48;;;;;;;5.25;4.70;;;21.00;41.10;;;;;;5054168;28;20440;-90
2022/03/09 11:34:42;;;;;;;6.05;4.97;;;22.90;40.00;;;;;;5036252;28;20511;-88
2022/03/09 11:37:15;;;;;;;13.55;5.70;;;22.10;39.00;;;;;;5033358;28;20107;-88
2022/03/09 11:39:47;;;;;;;9.30;5.67;;;24.00;38.10;;;;;;5035954;28;20199;-88
2022/03/09 11:42:20;;;;;;;9.38;4.95;;;23.50;37.50;;;;;;5035795;28;20311;-88
2022/03/09 11:45:14;;;;;;;7.68;4.63;;;21.70;38.30;;;;;;5037135;28;20080;-89
2022/03/09 11:48:11;;;;;;;10.98;5.15;;;22.70;38.40;;;;;;5035827;28;20128;-89
2022/03/09 11:50:45;;;;;;;23.50;6.30;;;21.90;39.40;;;;;;5053284;28;20049;-89
2022/03/09 11:53:14;;;;;;;7.57;4.65;;;23.00;38.20;;;;;;5036206;28;20057;-89
2022/03/09 11:55:41;;;;;;;4.93;4.40;;;22.00;37.90;;;;;;5035919;28;20133;-88
2022/03/09 11:58:13;;;;;;;7.22;4.78;;;20.30;38.10;;;;;;5053395;28;20091;-88
2022/03/09 12:01:02;;;;;;;6.55;4.82;;;20.00;39.40;;;;;;5036442;28;20587;-89
2022/03/09 12:03:41;;;;;;;7.13;4.70;;;20.20;39.60;;;;;;5035971;28;20112;-88
2022/03/09 12:06:43;;;;;;;4.60;4.20;;;20.20;40.10;;;;;;5053759;28;20045;-88
2022/03/09 12:09:11;;;;;;;6.68;4.55;;;20.00;39.70;;;;;;5053611;28;20048;-88
2022/03/09 12:12:07;;;;;;;6.78;4.35;;;21.10;39.00;;;;;;5053741;28;20127;-90
2022/03/09 12:15:13;;;;;;;8.63;4.68;;;22.00;38.00;;;;;;5035904;28;20462;-89
2022/03/09 12:17:47;;;;;;;13.80;4.80;;;20.80;38.10;;;;;;5053063;28;20406;-89
2022/03/09 12:20:23;;;;;;;5.25;4.43;;;19.70;39.10;;;;;;5035687;28;20084;-88
2022/03/09 12:22:57;;;;;;;14.55;5.28;;;19.30;40.30;;;;;;5036673;28;20494;-89
2022/03/09 12:25:46;;;;;;;4.90;4.40;;;19.90;41.40;;;;;;5035330;28;20530;-89
2022/03/09 12:28:29;;;;;;;5.32;4.28;;;19.80;40.00;;;;;;5036224;28;20057;-88
2022/03/09 12:30:59;;;;;;;9.63;4.88;;;20.10;39.70;;;;;;5035985;28;20055;-88
2022/03/09 12:33:35;;;;;;;6.03;4.47;;;19.90;40.30;;;;;;5035647;28;20045;-88
2022/03/09 12:36:10;;;;;;;5.47;4.22;;;19.50;40.50;;;;;;5036605;28;20056;-89
2022/03/09 12:38:58;;;;;;;5.55;4.60;;;19.80;40.50;;;;;;5053094;28;20167;-90
2022/03/09 12:41:31;;;;;;;7.00;4.65;;;19.70;40.80;;;;;;5053208;28;20083;-91
2022/03/09 12:44:06;;;;;;;8.57;4.57;;;19.90;40.50;;;;;;5052638;28;20085;-89
2022/03/09 12:46:41;;;;;;;8.43;4.85;;;18.50;41.30;;;;;;5036267;28;20291;-90